createdAt,value
2022-12-18T00:02:17.892Z,23.87
2022-12-18T00:05:21.300Z,23.13
2022-12-18T00:08:24.683Z,26.50
2022-12-18T00:11:30.584Z,26.00
2022-12-18T00:14:33.559Z,23.02
2022-12-18T00:17:37.074Z,23.55
2022-12-18T00:20:41.944Z,24.23
2022-12-18T00:23:47.417Z,22.15
2022-12-18T00:26:50.205Z,23.57
2022-12-18T00:29:53.272Z,23.98
2022-12-18T00:32:56.471Z,22.27
2022-12-18T00:36:12.188Z,22.47
2022-12-18T00:39:16.161Z,23.15
2022-12-18T00:42:40.471Z,21.48
2022-12-18T00:45:43.739Z,20.02
2022-12-18T00:48:48.329Z,22.52
2022-12-18T00:51:51.391Z,23.92
2022-12-18T00:54:55.253Z,23.12
2022-12-18T00:57:58.339Z,20.17
2022-12-18T01:01:01.814Z,20.73
2022-12-18T01:04:06.414Z,20.05
2022-12-18T01:07:11.361Z,17.47
2022-12-18T01:10:14.912Z,18.27
2022-12-18T01:13:18.679Z,20.52
2022-12-18T01:16:23.408Z,18.58
2022-12-18T01:19:26.837Z,18.75
2022-12-18T01:22:31.326Z,18.87
2022-12-18T01:25:40.192Z,16.90
2022-12-18T01:28:46.346Z,17.63
2022-12-18T01:31:51.324Z,18.77
2022-12-18T01:34:54.400Z,17.27
2022-12-18T01:37:59.187Z,16.83
2022-12-18T01:41:04.059Z,18.02
2022-12-18T01:44:45.966Z,18.90
2022-12-18T01:47:53.104Z,17.60
2022-12-18T01:50:57.010Z,17.45
2022-12-18T01:54:01.834Z,17.77
2022-12-18T01:57:05.283Z,16.20
2022-12-18T02:00:14.804Z,16.20
2022-12-18T02:03:19.121Z,17.27
2022-12-18T02:06:34.497Z,16.70
2022-12-18T02:10:00.838Z,17.40
2022-12-18T02:13:29.217Z,17.42
2022-12-18T02:16:54.867Z,16.75
2022-12-18T02:20:19.657Z,17.98
2022-12-18T02:23:37.706Z,16.08
2022-12-18T02:26:52.196Z,14.18
2022-12-18T02:30:00.703Z,16.98
2022-12-18T02:33:07.520Z,16.53
2022-12-18T02:36:14.050Z,15.55
2022-12-18T02:39:21.359Z,14.38
2022-12-18T02:42:25.742Z,16.30
2022-12-18T02:45:29.196Z,16.35
2022-12-18T02:48:35.090Z,15.90
2022-12-18T02:52:11.222Z,15.02
2022-12-18T02:55:17.731Z,13.82
2022-12-18T02:58:37.689Z,15.25
2022-12-18T03:01:56.167Z,12.77
2022-12-18T03:05:03.295Z,12.67
2022-12-18T03:08:29.144Z,14.05
2022-12-18T03:11:57.063Z,14.45
2022-12-18T03:15:14.564Z,13.90
2022-12-18T03:18:26.146Z,13.57
2022-12-18T03:21:43.681Z,14.48
2022-12-18T03:24:49.788Z,13.40
2022-12-18T03:27:59.948Z,12.77
2022-12-18T03:31:08.673Z,13.43
2022-12-18T03:34:18.735Z,14.48
2022-12-18T03:37:22.762Z,13.40
2022-12-18T03:40:36.450Z,14.77
2022-12-18T03:43:53.312Z,13.85
2022-12-18T03:46:57.554Z,14.10
2022-12-18T03:50:12.470Z,12.93
2022-12-18T03:53:59.054Z,12.73
2022-12-18T03:57:15.780Z,12.43
2022-12-18T04:00:22.735Z,13.75
2022-12-18T04:03:32.391Z,13.98
2022-12-18T04:06:37.428Z,14.27
2022-12-18T04:09:44.426Z,13.93
2022-12-18T04:12:49.665Z,14.07
2022-12-18T04:15:56.189Z,14.82
2022-12-18T04:19:00.415Z,13.53
2022-12-18T04:22:05.354Z,13.93
2022-12-18T04:25:13.480Z,14.45
2022-12-18T04:28:20.593Z,13.15
2022-12-18T04:31:27.951Z,14.02
2022-12-18T04:34:35.012Z,13.52
2022-12-18T04:37:38.902Z,12.88
2022-12-18T04:40:42.500Z,13.53
2022-12-18T04:43:46.511Z,14.18
2022-12-18T04:46:49.988Z,13.23
2022-12-18T04:49:53.526Z,12.93
2022-12-18T04:52:59.179Z,13.73
2022-12-18T04:56:08.839Z,14.35
2022-12-18T04:59:12.329Z,14.77
2022-12-18T05:02:15.404Z,12.27
2022-12-18T05:05:19.862Z,13.77
2022-12-18T05:08:23.214Z,14.70
2022-12-18T05:11:27.447Z,16.63
2022-12-18T05:14:30.715Z,14.80
2022-12-18T05:17:33.976Z,14.73
2022-12-18T05:20:37.199Z,14.73
2022-12-18T05:23:40.937Z,14.40
2022-12-18T05:26:44.315Z,14.87
2022-12-18T05:29:47.970Z,13.75
2022-12-18T05:32:51.227Z,13.88
2022-12-18T05:35:57.856Z,15.05
2022-12-18T05:39:02.008Z,14.95
2022-12-18T05:42:05.442Z,15.20
2022-12-18T05:45:09.120Z,14.40
2022-12-18T05:48:13.678Z,15.65
2022-12-18T05:51:19.288Z,15.87
2022-12-18T05:54:23.325Z,15.50
2022-12-18T05:57:26.418Z,14.55
2022-12-18T06:00:30.933Z,16.25
2022-12-18T06:03:34.430Z,14.82
2022-12-18T06:06:37.868Z,15.77
2022-12-18T06:09:43.331Z,16.83
2022-12-18T06:12:46.540Z,17.13
2022-12-18T06:15:50.980Z,17.37
2022-12-18T06:18:54.445Z,15.32
2022-12-18T06:21:59.999Z,16.87
2022-12-18T06:25:03.210Z,18.27
2022-12-18T06:28:06.954Z,15.80
2022-12-18T06:31:11.057Z,15.18
2022-12-18T06:34:14.432Z,18.10
2022-12-18T06:37:17.823Z,17.23
2022-12-18T06:40:21.355Z,19.23
2022-12-18T06:43:24.657Z,20.00
2022-12-18T06:46:28.344Z,25.55
2022-12-18T06:49:31.651Z,22.52
2022-12-18T06:52:35.461Z,27.40
2022-12-18T06:55:38.521Z,28.83
2022-12-18T06:58:46.029Z,25.80
2022-12-18T07:01:49.343Z,26.27
2022-12-18T07:04:53.866Z,24.52
2022-12-18T07:07:57.007Z,24.63
2022-12-18T07:11:00.516Z,26.50
2022-12-18T07:14:03.908Z,25.17
2022-12-18T07:17:07.472Z,26.90
2022-12-18T07:20:11.245Z,28.17
2022-12-18T07:23:14.645Z,28.07
2022-12-18T07:26:20.355Z,28.45
2022-12-18T07:29:24.113Z,24.95
2022-12-18T07:32:27.211Z,27.00
2022-12-18T07:35:30.632Z,27.75
2022-12-18T07:38:36.071Z,27.73
2022-12-18T07:41:46.778Z,25.05
2022-12-18T07:44:52.288Z,23.93
2022-12-18T07:47:55.669Z,20.50
2022-12-18T07:51:04.383Z,18.00
2022-12-18T07:54:07.954Z,19.73
2022-12-18T07:57:27.376Z,22.58
2022-12-18T08:00:35.617Z,18.95
2022-12-18T08:03:42.130Z,20.52
2022-12-18T08:06:48.354Z,19.25
2022-12-18T08:09:52.021Z,18.25
2022-12-18T08:12:56.336Z,18.37
2022-12-18T08:16:07.112Z,19.33
2022-12-18T08:19:10.380Z,25.62
2022-12-18T08:22:14.539Z,29.98
2022-12-18T08:25:18.004Z,26.53
2022-12-18T08:28:21.637Z,25.70
2022-12-18T08:31:26.245Z,24.63
2022-12-18T08:34:29.743Z,24.50
2022-12-18T08:37:32.921Z,29.45
2022-12-18T08:40:36.561Z,24.12
2022-12-18T08:43:58.181Z,23.12
2022-12-18T08:47:01.486Z,22.20
2022-12-18T08:50:05.270Z,19.80
2022-12-18T08:53:08.856Z,20.98
2022-12-18T08:56:12.480Z,21.40
2022-12-18T08:59:19.661Z,19.70
2022-12-18T09:02:24.020Z,20.58
2022-12-18T09:05:27.496Z,18.58
2022-12-18T09:08:31.388Z,20.40
2022-12-18T09:11:35.371Z,19.27
2022-12-18T09:14:38.547Z,19.73
2022-12-18T09:17:41.900Z,20.67
2022-12-18T09:20:45.484Z,19.08
2022-12-18T09:23:53.535Z,17.55
2022-12-18T09:26:58.019Z,17.53
2022-12-18T09:30:01.777Z,16.92
2022-12-18T09:33:04.853Z,16.30
2022-12-18T09:36:12.689Z,17.23
2022-12-18T09:39:15.889Z,17.35
2022-12-18T09:42:24.119Z,16.73
2022-12-18T09:45:29.119Z,15.43
2022-12-18T09:48:37.493Z,16.60
2022-12-18T09:51:50.204Z,18.40
2022-12-18T09:55:01.961Z,18.25
2022-12-18T09:58:11.117Z,29.33
2022-12-18T10:01:23.773Z,18.30
2022-12-18T10:04:32.050Z,17.12
2022-12-18T10:07:53.870Z,17.40
2022-12-18T10:11:05.956Z,18.08
2022-12-18T10:14:19.380Z,18.05
2022-12-18T10:17:43.005Z,16.83
2022-12-18T10:20:54.085Z,18.30
2022-12-18T10:24:17.525Z,16.90
2022-12-18T10:27:25.467Z,20.20
2022-12-18T10:30:29.008Z,17.93
2022-12-18T10:33:34.642Z,17.10
2022-12-18T10:36:39.083Z,16.00
2022-12-18T10:39:42.416Z,17.15
2022-12-18T10:42:46.083Z,15.88
2022-12-18T10:46:11.194Z,16.05
2022-12-18T10:49:29.383Z,15.13
2022-12-18T10:52:32.501Z,15.43
2022-12-18T10:55:40.956Z,15.95
2022-12-18T10:58:57.866Z,16.80
2022-12-18T11:02:01.413Z,17.70
2022-12-18T11:05:24.862Z,17.05
2022-12-18T11:08:30.022Z,16.92
2022-12-18T11:11:34.447Z,18.12
2022-12-18T11:14:47.363Z,18.50
2022-12-18T11:17:52.800Z,21.20
2022-12-18T11:21:00.111Z,18.95
2022-12-18T11:24:03.377Z,17.90
2022-12-18T11:27:18.977Z,20.25
2022-12-18T11:30:26.843Z,19.52
2022-12-18T11:33:30.284Z,20.67
2022-12-18T11:36:43.427Z,19.60
2022-12-18T11:39:56.163Z,18.90
2022-12-18T11:43:14.525Z,14.55
2022-12-18T11:46:41.192Z,17.48
2022-12-18T11:49:44.432Z,17.62
2022-12-18T11:52:51.576Z,18.25
2022-12-18T11:56:24.334Z,18.00
2022-12-18T11:59:43.699Z,16.62
2022-12-18T12:03:17.865Z,16.58
2022-12-18T12:06:48.955Z,17.97
2022-12-18T12:10:17.955Z,17.52
2022-12-18T12:13:36.475Z,18.08
2022-12-18T12:17:26.077Z,17.25
2022-12-18T12:20:51.864Z,17.67
2022-12-18T12:24:24.728Z,17.85
2022-12-18T12:27:36.202Z,16.35
2022-12-18T12:31:11.159Z,17.10
2022-12-18T12:34:24.011Z,16.20
2022-12-18T12:37:34.115Z,14.98
2022-12-18T12:41:02.540Z,14.77
2022-12-18T12:44:14.748Z,15.68
2022-12-18T12:47:33.522Z,14.02
2022-12-18T12:50:38.807Z,14.98
2022-12-18T12:53:43.010Z,15.52
2022-12-18T12:56:46.289Z,16.05
2022-12-18T13:00:05.017Z,20.98
2022-12-18T13:03:33.184Z,20.97
2022-12-18T13:07:00.424Z,19.50
2022-12-18T13:10:25.747Z,19.92
2022-12-18T13:13:50.780Z,19.77
2022-12-18T13:17:21.031Z,20.98
2022-12-18T13:20:35.408Z,18.27
2022-12-18T13:23:39.683Z,18.35
2022-12-18T13:26:43.335Z,17.77
2022-12-18T13:29:48.130Z,18.27
2022-12-18T13:33:14.999Z,19.20
2022-12-18T13:36:28.445Z,18.27
2022-12-18T13:39:35.899Z,17.10
2022-12-18T13:42:59.722Z,18.50
2022-12-18T13:46:07.381Z,17.40
2022-12-18T13:49:13.762Z,16.35
2022-12-18T13:52:27.254Z,15.23
2022-12-18T13:55:31.146Z,17.10
2022-12-18T13:58:34.733Z,16.62
2022-12-18T14:01:37.994Z,16.42
2022-12-18T14:04:41.621Z,15.75
2022-12-18T14:07:48.309Z,20.40
2022-12-18T14:10:54.734Z,18.30
2022-12-18T14:13:58.565Z,20.00
2022-12-18T14:17:03.538Z,20.10
2022-12-18T14:20:16.603Z,21.35
2022-12-18T14:23:41.499Z,20.37
2022-12-18T14:26:45.018Z,23.15
2022-12-18T14:29:48.586Z,20.85
2022-12-18T14:33:25.358Z,22.13
2022-12-18T14:36:30.565Z,21.17
2022-12-18T14:39:33.769Z,21.03
2022-12-18T14:42:39.035Z,22.65
2022-12-18T14:45:44.598Z,22.17
2022-12-18T14:48:49.471Z,20.90
2022-12-18T14:52:01.343Z,22.70
2022-12-18T14:55:08.296Z,22.17
2022-12-18T14:58:18.769Z,19.87
2022-12-18T15:02:03.574Z,26.30
2022-12-18T15:05:15.276Z,25.75
2022-12-18T15:08:38.153Z,27.80
2022-12-18T15:11:42.961Z,25.30
2022-12-18T15:15:01.830Z,25.48
2022-12-18T15:18:23.127Z,25.00
2022-12-18T15:21:32.023Z,23.87
2022-12-18T15:24:37.815Z,24.00
2022-12-18T15:27:49.099Z,23.77
2022-12-18T15:31:12.956Z,23.05
2022-12-18T15:34:25.125Z,24.35
2022-12-18T15:37:30.679Z,24.77
2022-12-18T15:40:37.735Z,34.92
2022-12-18T15:43:43.334Z,24.13
2022-12-18T15:46:50.307Z,29.85
2022-12-18T15:49:54.834Z,28.98
2022-12-18T15:53:00.107Z,29.87
2022-12-18T15:56:29.542Z,31.02
2022-12-18T15:59:34.367Z,37.53
2022-12-18T16:02:39.415Z,35.10
2022-12-18T16:05:44.401Z,39.70
2022-12-18T16:08:48.830Z,40.20
2022-12-18T16:11:56.249Z,42.83
2022-12-18T16:15:03.529Z,38.50
2022-12-18T16:18:08.096Z,35.72
2022-12-18T16:21:12.262Z,35.28
2022-12-18T16:24:23.527Z,32.27
2022-12-18T16:27:29.686Z,31.42
2022-12-18T16:30:38.013Z,32.50
2022-12-18T16:33:43.728Z,32.53
2022-12-18T16:36:49.898Z,32.17
2022-12-18T16:39:54.686Z,32.97
2022-12-18T16:43:11.771Z,36.08
2022-12-18T16:46:15.868Z,38.70
2022-12-18T16:49:21.184Z,41.78
2022-12-18T16:52:26.368Z,39.10
2022-12-18T16:55:31.336Z,39.60
2022-12-18T16:58:36.376Z,41.80
2022-12-18T17:01:42.449Z,42.35
2022-12-18T17:04:48.710Z,48.58
2022-12-18T17:07:52.995Z,40.10
2022-12-18T17:10:57.253Z,37.80
2022-12-18T17:14:07.855Z,37.88
2022-12-18T17:17:23.071Z,38.73
2022-12-18T17:20:32.633Z,40.78
2022-12-18T17:23:38.244Z,37.67
2022-12-18T17:26:43.081Z,48.80
2022-12-18T17:29:48.788Z,48.42
2022-12-18T17:32:57.484Z,41.90
2022-12-18T17:36:03.028Z,39.47
2022-12-18T17:39:18.929Z,38.80
2022-12-18T17:42:23.065Z,39.00
2022-12-18T17:45:29.275Z,38.35
2022-12-18T17:48:36.176Z,37.83
2022-12-18T17:51:43.512Z,38.50
2022-12-18T17:54:47.558Z,33.28
2022-12-18T17:57:54.162Z,33.67
2022-12-18T18:01:01.048Z,37.58
2022-12-18T18:04:07.144Z,36.50
2022-12-18T18:07:11.745Z,37.60
2022-12-18T18:10:17.732Z,40.72
2022-12-18T18:13:47.156Z,39.80
2022-12-18T18:16:53.004Z,36.47
2022-12-18T18:19:57.704Z,36.40
2022-12-18T18:23:02.481Z,39.50
2022-12-18T18:26:08.781Z,39.13
2022-12-18T18:29:21.227Z,42.07
2022-12-18T18:32:26.000Z,40.63
2022-12-18T18:35:53.351Z,43.33
2022-12-18T18:38:55.351Z,46.30
2022-12-18T18:42:00.075Z,45.88
2022-12-18T18:45:11.697Z,44.65
2022-12-18T18:48:17.692Z,47.47
2022-12-18T18:51:24.186Z,43.20
2022-12-18T18:54:31.699Z,39.78
2022-12-18T18:57:36.231Z,39.47
2022-12-18T19:00:41.266Z,42.00
2022-12-18T19:03:46.875Z,40.67
2022-12-18T19:06:51.353Z,40.65
2022-12-18T19:09:57.648Z,39.40
2022-12-18T19:13:22.854Z,41.58
2022-12-18T19:16:28.679Z,40.58
2022-12-18T19:19:36.350Z,43.20
2022-12-18T19:22:42.233Z,42.10
2022-12-18T19:25:50.670Z,43.28
2022-12-18T19:29:01.635Z,40.92
2022-12-18T19:32:07.437Z,42.83
2022-12-18T19:35:12.804Z,41.83
2022-12-18T19:38:18.854Z,47.47
2022-12-18T19:41:24.534Z,46.03
2022-12-18T19:44:30.814Z,47.05
2022-12-18T19:47:36.125Z,51.65
2022-12-18T19:50:42.879Z,53.10
2022-12-18T19:53:48.163Z,51.40
2022-12-18T19:56:54.041Z,54.85
2022-12-18T19:59:58.563Z,49.55
2022-12-18T20:03:16.020Z,50.30
2022-12-18T20:06:33.561Z,47.50
2022-12-18T20:09:39.112Z,46.13
2022-12-18T20:12:43.891Z,46.17
2022-12-18T20:15:48.047Z,47.20
2022-12-18T20:18:52.448Z,46.95
2022-12-18T20:21:56.854Z,51.58
2022-12-18T20:25:01.668Z,43.73
2022-12-18T20:28:06.133Z,47.47
2022-12-18T20:31:13.352Z,48.28
2022-12-18T20:34:18.106Z,47.97
2022-12-18T20:37:22.567Z,46.78
2022-12-18T20:40:29.504Z,46.37
2022-12-18T20:43:33.085Z,45.33
2022-12-18T20:46:38.374Z,45.65
2022-12-18T20:49:42.689Z,48.50
2022-12-18T20:52:50.754Z,47.25
2022-12-18T20:55:54.343Z,46.70
2022-12-18T20:58:58.914Z,45.88
2022-12-18T21:02:02.675Z,47.47
2022-12-18T21:05:06.483Z,48.50
2022-12-18T21:08:10.914Z,51.05
2022-12-18T21:11:40.658Z,50.40
2022-12-18T21:14:44.902Z,49.65
2022-12-18T21:17:49.712Z,52.67
2022-12-18T21:20:53.197Z,49.28
2022-12-18T21:23:56.596Z,44.38
2022-12-18T21:27:00.356Z,39.30
2022-12-18T21:30:03.993Z,41.33
2022-12-18T21:33:07.603Z,44.95
2022-12-18T21:36:11.078Z,50.80
2022-12-18T21:39:16.324Z,47.03
2022-12-18T21:42:38.080Z,42.28
2022-12-18T21:45:41.546Z,41.78
2022-12-18T21:48:45.863Z,40.17
2022-12-18T21:51:51.098Z,38.80
2022-12-18T21:54:54.256Z,40.58
2022-12-18T21:57:58.554Z,38.70
2022-12-18T22:01:01.663Z,40.85
2022-12-18T22:04:05.299Z,41.05
2022-12-18T22:07:09.384Z,39.83
2022-12-18T22:10:14.702Z,42.28
2022-12-18T22:13:17.930Z,43.25
2022-12-18T22:16:21.117Z,41.60
2022-12-18T22:19:27.632Z,36.80
2022-12-18T22:22:30.808Z,39.17
2022-12-18T22:25:35.228Z,37.20
2022-12-18T22:28:59.200Z,35.77
2022-12-18T22:32:04.196Z,38.22
2022-12-18T22:35:14.150Z,37.15
2022-12-18T22:38:19.112Z,38.47
2022-12-18T22:41:22.436Z,36.67
2022-12-18T22:44:26.849Z,32.03
2022-12-18T22:47:30.832Z,35.40
2022-12-18T22:50:33.995Z,33.13
2022-12-18T22:53:37.333Z,33.55
2022-12-18T22:56:40.714Z,35.53
2022-12-18T22:59:44.213Z,32.80
2022-12-18T23:02:47.432Z,36.45
2022-12-18T23:05:50.992Z,32.45
2022-12-18T23:08:58.247Z,31.53
2022-12-18T23:12:01.665Z,32.65
2022-12-18T23:15:05.611Z,32.40
2022-12-18T23:18:09.068Z,33.70
2022-12-18T23:21:17.685Z,29.55
2022-12-18T23:24:22.073Z,32.70
2022-12-18T23:27:25.223Z,32.95
2022-12-18T23:30:28.818Z,34.27
2022-12-18T23:33:31.942Z,32.50
2022-12-18T23:36:46.513Z,30.77
2022-12-18T23:39:50.165Z,31.07
2022-12-18T23:42:53.481Z,30.08
2022-12-18T23:45:56.478Z,30.65
2022-12-18T23:49:01.924Z,32.75
2022-12-18T23:52:05.206Z,32.00
2022-12-18T23:55:08.912Z,30.92
2022-12-18T23:58:20.222Z,35.10
